Terminal Aerodrome Forecast
Issued by NWS Atlanta, GA

Home | Current Version | Previous Version | Text Only | Print | Product List | Glossary On
Versions: 1 2 3 4 5 6 7 8 9 10 11 12 13 14 15 16 17 18 19 20 21 22 23 24 25 26 27 28 29 30 31 32 33 34 35 36
076
FTUS42 KFFC 041134
TAFATL
TAF
KATL 041134Z 0412/0518 09014G20KT 5SM -RADZ OVC025
     FM041500 09014G20KT 5SM -RA BR BKN008 OVC025
     FM041800 09014G20KT 5SM -RA BR BKN006 OVC012
     FM050000 08010KT 3SM -RA BR OVC005
     FM050600 06008KT 2SM -RADZ OVC003
     FM051500 07007KT 3SM -RA OVC005=

USA.gov is the U.S. government's official web portal to all federal, state and local government web resources and services.